.
WxDataArchive / Data Records for 2008-01-27
2008-01-26 January 2008 2008-01-28

Data Records for Sunday, 27 January 2008

Time	Temp	Chill	HIndex	Humid	Dewpt	 Wind 	HiWind	WindDir	Rain 	Barom 
-----	----	-----	------	-----	-----	------	------	-------	-----	----- 
00:00	27.9	27.9	27.9	85	24.0	1	3	248	0.00	29.944 
00:05	27.8	27.8	27.8	86	24.2	0	2	248	0.00	29.943 
00:10	27.6	27.6	27.6	86	24.0	0	3	248	0.00	29.943 
00:15	27.5	27.5	27.5	86	23.9	0	1	248	0.00	29.943 
00:20	27.3	27.3	27.3	86	23.7	0	1	248	0.00	29.944 
00:25	27.3	27.3	27.3	87	24.0	1	3	248	0.00	29.945 
00:30	27.2	27.2	27.2	87	23.9	0	2	248	0.00	29.945 
00:35	27.2	27.2	27.2	87	23.9	2	4	248	0.00	29.945 
00:40	27.2	27.2	27.2	87	23.9	1	4	248	0.00	29.944 
00:45	27.2	27.2	27.2	87	23.9	1	4	248	0.00	29.945 
00:50	27.2	27.2	27.2	87	23.9	2	4	248	0.00	29.948 
00:55	27.0	27.0	27.0	87	23.7	1	4	248	0.00	29.951 
01:00	26.9	26.9	26.9	86	23.3	1	3	248	0.00	29.949 
01:05	26.9	26.9	26.9	86	23.3	1	6	248	0.00	29.945 
01:10	26.7	26.7	26.7	86	23.1	1	4	248	0.00	29.946 
01:15	26.4	26.4	26.4	86	22.8	0	2	248	0.00	29.953 
01:20	26.3	26.3	26.3	85	22.4	1	3	248	0.00	29.948 
01:25	26.1	26.1	26.1	85	22.2	1	5	248	0.00	29.952 
01:30	26.0	26.0	26.0	84	21.8	2	5	248	0.00	29.948 
01:35	25.8	25.8	25.8	82	21.1	2	5	270	0.00	29.956 
01:40	25.8	25.8	25.8	81	20.8	2	7	270	0.00	29.959 
01:45	25.7	25.7	25.7	80	20.4	2	6	270	0.00	29.958 
01:50	25.4	25.4	25.4	79	19.8	1	3	270	0.00	29.961 
01:55	25.1	25.1	25.1	79	19.5	2	4	270	0.00	29.962 
02:00	24.8	24.8	24.8	79	19.2	1	4	248	0.00	29.962 
02:05	24.5	24.5	24.5	79	18.9	1	3	248	0.00	29.964 
02:10	24.2	24.2	24.2	80	18.9	2	4	270	0.00	29.972 
02:15	24.2	24.2	24.2	80	18.9	1	5	270	0.00	29.976 
02:20	24.4	24.4	24.4	80	19.1	1	3	225	0.00	29.975 
02:25	24.4	24.4	24.4	80	19.1	1	3	248	0.00	29.977 
02:30	24.4	24.4	24.4	80	19.1	1	4	248	0.00	29.978 
02:35	24.4	24.4	24.4	80	19.1	2	4	248	0.00	29.980 
02:40	24.4	24.4	24.4	80	19.1	1	4	248	0.00	29.985 
02:45	24.4	24.4	24.4	79	18.8	1	4	248	0.00	29.984 
02:50	24.4	24.4	24.4	79	18.8	0	2	248	0.00	29.979 
02:55	24.4	24.4	24.4	79	18.8	1	5	270	0.00	29.979 
03:00	24.4	24.4	24.4	79	18.8	1	3	248	0.00	29.980 
03:05	24.4	24.4	24.4	79	18.8	1	3	248	0.00	29.989 
03:10	24.5	24.5	24.5	78	18.6	1	4	270	0.00	29.991 
03:15	24.5	24.5	24.5	78	18.6	1	4	270	0.00	29.993 
03:20	24.4	24.4	24.4	78	18.5	1	4	292	0.00	29.993 
03:25	24.4	24.4	24.4	78	18.5	1	4	248	0.00	29.994 
03:30	24.4	24.4	24.4	78	18.5	1	5	248	0.00	29.997 
03:35	24.4	24.4	24.4	79	18.8	1	3	248	0.00	30.002 
03:40	24.4	24.4	24.4	79	18.8	0	4	248	0.00	30.001 
03:45	24.4	24.4	24.4	79	18.8	0	2	248	0.00	30.003 
03:50	24.2	24.2	24.2	79	18.6	1	3	270	0.00	30.005 
03:55	24.2	24.2	24.2	79	18.6	1	3	292	0.00	30.006 
04:00	24.2	24.2	24.2	79	18.6	2	5	248	0.00	30.009 
04:05	24.2	24.2	24.2	79	18.6	1	5	248	0.00	30.010 
04:10	24.2	24.2	24.2	78	18.3	1	3	248	0.00	30.011 
04:15	24.2	24.2	24.2	79	18.6	1	4	248	0.00	30.010 
04:20	24.1	24.1	24.1	80	18.8	1	4	270	0.00	30.012 
04:25	24.1	24.1	24.1	80	18.8	1	3	248	0.00	30.015 
04:30	24.1	24.1	24.1	80	18.8	1	6	248	0.00	30.017 
04:35	24.1	24.1	24.1	80	18.8	0	1	248	0.00	30.021 
04:40	24.1	24.1	24.1	80	18.8	1	4	248	0.00	30.023 
04:45	24.1	24.1	24.1	80	18.8	1	4	248	0.00	30.023 
04:50	24.1	24.1	24.1	80	18.8	1	4	248	0.00	30.024 
04:55	24.1	24.1	24.1	80	18.8	1	4	248	0.00	30.024 
05:00	24.1	24.1	24.1	80	18.8	1	4	270	0.00	30.025 
05:05	24.1	24.1	24.1	80	18.8	1	4	225	0.00	30.026 
05:10	23.9	23.9	23.9	80	18.6	1	4	248	0.00	30.025 
05:15	23.9	23.9	23.9	80	18.6	1	2	248	0.00	30.023 
05:20	23.9	23.9	23.9	80	18.6	1	5	248	0.00	30.024 
05:25	23.9	23.9	23.9	80	18.6	1	5	248	0.00	30.025 
05:30	23.8	23.8	23.8	80	18.5	2	4	248	0.00	30.025 
05:35	23.8	23.8	23.8	80	18.5	1	4	248	0.00	30.026 
05:40	23.8	23.8	23.8	80	18.5	1	3	248	0.00	30.025 
05:45	23.8	23.8	23.8	80	18.5	1	2	270	0.00	30.025 
05:50	23.8	23.8	23.8	80	18.5	1	4	225	0.00	30.025 
05:55	23.8	23.8	23.8	80	18.5	1	5	248	0.00	30.025 
06:00	23.8	23.8	23.8	80	18.5	2	6	248	0.00	30.025 
06:05	23.8	23.8	23.8	80	18.5	1	3	248	0.00	30.024 
06:10	23.8	23.8	23.8	80	18.5	2	5	248	0.00	30.035 
06:15	23.8	23.8	23.8	80	18.5	1	4	248	0.00	30.036 
06:20	23.8	23.8	23.8	80	18.5	1	4	225	0.00	30.037 
06:25	23.8	23.8	23.8	80	18.5	1	6	225	0.00	30.040 
06:30	23.8	23.8	23.8	80	18.5	2	5	225	0.00	30.040 
06:35	23.8	23.8	23.8	80	18.5	1	5	248	0.00	30.039 
06:40	23.9	23.9	23.9	80	18.6	1	3	248	0.00	30.041 
06:45	23.9	23.9	23.9	80	18.6	1	3	248	0.00	30.046 
06:50	23.9	23.9	23.9	80	18.6	1	4	248	0.00	30.043 
06:55	23.9	23.9	23.9	80	18.6	2	7	248	0.00	30.052 
07:00	23.9	23.9	23.9	80	18.6	2	3	248	0.00	30.047 
07:05	23.8	23.8	23.8	80	18.5	1	4	225	0.00	30.051 
07:10	23.8	23.8	23.8	80	18.5	1	3	248	0.00	30.043 
07:15	23.8	23.8	23.8	80	18.5	1	5	248	0.00	30.047 
07:20	23.6	23.6	23.6	80	18.4	2	5	248	0.00	30.055 
07:25	23.6	23.6	23.6	80	18.4	2	4	248	0.00	30.058 
07:30	23.6	23.6	23.6	80	18.4	1	5	248	0.00	30.060 
07:35	23.6	23.6	23.6	80	18.4	1	3	248	0.00	30.058 
07:40	23.6	23.6	23.6	80	18.4	2	7	270	0.00	30.069 
07:45	23.6	23.6	23.6	80	18.4	2	6	248	0.00	30.070 
07:50	23.6	23.6	23.6	80	18.4	2	7	248	0.00	30.072 
07:55	23.6	23.6	23.6	80	18.4	2	5	248	0.00	30.072 
08:00	23.5	23.5	23.5	80	18.3	1	4	248	0.00	30.072 
08:05	23.5	23.5	23.5	80	18.3	1	2	248	0.00	30.076 
08:10	23.5	23.5	23.5	80	18.3	1	4	248	0.00	30.084 
08:15	23.5	23.5	23.5	81	18.5	1	3	248	0.00	30.082 
08:20	23.5	23.5	23.5	81	18.5	0	3	248	0.00	30.085 
08:25	23.3	23.3	23.3	80	18.1	2	5	248	0.00	30.087 
08:30	23.3	23.3	23.3	80	18.1	1	5	248	0.00	30.080 
08:35	23.3	23.3	23.3	80	18.1	1	4	248	0.00	30.079 
08:40	23.3	23.3	23.3	80	18.1	1	3	248	0.00	30.071 
08:45	23.3	23.3	23.3	80	18.1	1	5	248	0.00	30.076 
08:50	23.3	23.3	23.3	80	18.1	1	3	248	0.00	30.079 
08:55	23.5	23.5	23.5	80	18.3	1	2	248	0.00	30.083 
09:00	23.5	23.5	23.5	79	18.0	2	5	248	0.00	30.088 
09:05	23.5	23.5	23.5	79	18.0	1	4	248	0.00	30.089 
09:10	23.6	23.6	23.6	79	18.1	1	3	248	0.00	30.090 
09:15	23.6	23.6	23.6	79	18.1	1	4	248	0.00	30.096 
09:20	23.6	23.6	23.6	79	18.1	1	5	248	0.00	30.099 
09:25	23.6	23.6	23.6	78	17.8	1	3	248	0.00	30.097 
09:30	23.6	23.6	23.6	78	17.8	2	5	248	0.00	30.099 
09:35	23.8	23.8	23.8	78	18.0	1	2	248	0.00	30.095 
09:40	23.9	23.9	23.9	78	18.1	1	6	270	0.00	30.100 
09:45	23.9	23.9	23.9	78	18.1	1	6	248	0.00	30.100 
09:50	24.1	24.1	24.1	77	18.0	1	3	248	0.00	30.101 
09:55	24.2	24.2	24.2	77	18.1	0	2	248	0.00	30.101 
10:00	24.4	24.4	24.4	77	18.2	1	4	248	0.00	30.104 
10:05	24.5	24.5	24.5	77	18.3	1	3	248	0.00	30.104 
10:10	24.7	24.7	24.7	76	18.2	1	3	248	0.00	30.104 
10:15	24.7	24.7	24.7	76	18.2	1	3	248	0.00	30.106 
10:20	24.8	24.8	24.8	76	18.3	1	2	248	0.00	30.108 
10:25	25.0	25.0	25.0	76	18.5	1	3	248	0.00	30.111 
10:30	25.1	25.1	25.1	76	18.6	1	3	225	0.00	30.114 
10:35	25.4	25.4	25.4	75	18.6	1	5	270	0.00	30.116 
10:40	25.6	25.6	25.6	74	18.5	2	4	248	0.00	30.119 
10:45	25.7	25.7	25.7	74	18.6	1	5	248	0.00	30.117 
10:50	25.7	25.7	25.7	74	18.6	1	6	270	0.00	30.117 
10:55	26.0	26.0	26.0	73	18.6	1	3	248	0.00	30.117 
11:00	26.1	26.1	26.1	73	18.7	2	6	248	0.00	30.117 
11:05	26.3	26.3	26.3	72	18.5	2	4	248	0.00	30.120 
11:10	26.4	26.4	26.4	72	18.6	1	5	248	0.00	30.124 
11:15	26.3	26.3	26.3	71	18.2	2	7	248	0.00	30.120 
11:20	26.3	26.3	26.3	71	18.2	2	6	248	0.00	30.124 
11:25	26.3	26.3	26.3	71	18.2	1	3	248	0.00	30.127 
11:30	26.4	26.4	26.4	71	18.3	2	4	248	0.00	30.127 
11:35	26.7	26.7	26.7	70	18.3	2	4	248	0.00	30.127 
11:40	26.9	26.9	26.9	70	18.4	2	4	225	0.00	30.127 
11:45	26.9	26.9	26.9	70	18.4	1	3	270	0.00	30.130 
11:50	26.9	26.9	26.9	70	18.4	1	4	248	0.00	30.129 
11:55	27.2	27.2	27.2	70	18.7	1	4	225	0.00	30.132 
12:00	27.5	27.5	27.5	69	18.7	1	3	225	0.00	30.131 
12:05	27.5	27.5	27.5	69	18.7	2	5	225	0.00	30.134 
12:10	27.6	27.6	27.6	69	18.8	1	4	292	0.00	30.133 
12:15	27.8	27.8	27.8	69	19.0	1	3	248	0.00	30.131 
12:20	28.1	28.1	28.1	69	19.3	1	2	248	0.00	30.131 
12:25	28.2	28.2	28.2	68	19.0	1	5	248	0.00	30.132 
12:30	28.1	28.1	28.1	68	18.9	1	4	248	0.00	30.129 
12:35	28.2	28.2	28.2	68	19.0	1	3	248	0.00	30.130 
12:40	28.2	28.2	28.2	68	19.0	1	2	315	0.00	30.127 
12:45	28.5	28.5	28.5	68	19.3	1	3	270	0.00	30.127 
12:50	28.5	28.5	28.5	67	19.0	1	3	270	0.00	30.123 
12:55	28.7	28.7	28.7	67	19.2	1	3	248	0.00	30.117 
13:00	28.7	28.7	28.7	67	19.2	1	3	292	0.00	30.116 
13:05	29.0	29.0	29.0	68	19.8	1	2	270	0.00	30.117 
13:10	29.0	29.0	29.0	67	19.4	1	3	248	0.00	30.111 
13:15	29.1	29.1	29.1	66	19.2	1	2	248	0.00	30.114 
13:20	29.1	29.1	29.1	65	18.8	1	3	315	0.00	30.116 
13:25	29.3	29.3	29.3	65	19.0	1	2	270	0.00	30.110 
13:30	29.5	29.5	29.5	65	19.2	1	3	270	0.00	30.113 
13:35	29.5	29.5	29.5	65	19.2	1	4	270	0.00	30.106 
13:40	29.4	29.4	29.4	64	18.8	1	3	315	0.00	30.106 
13:45	29.7	29.7	29.7	63	18.7	1	5	248	0.00	30.103 
13:50	29.8	29.8	29.8	62	18.4	1	5	248	0.00	30.102 
13:55	30.1	30.1	30.1	61	18.3	1	5	248	0.00	30.101 
14:00	30.1	30.1	30.1	61	18.3	1	4	270	0.00	30.097 
14:05	30.0	30.0	30.0	61	18.2	1	3	292	0.00	30.097 
14:10	30.1	30.1	30.1	61	18.3	1	3	270	0.00	30.093 
14:15	29.8	29.8	29.8	61	18.0	1	4	315	0.00	30.094 
14:20	29.7	29.7	29.7	60	17.5	2	7	270	0.00	30.097 
14:25	30.0	30.0	30.0	59	17.4	2	4	270	0.00	30.099 
14:30	29.8	29.8	29.8	59	17.2	2	6	270	0.00	30.095 
14:35	29.7	29.7	29.7	60	17.5	3	6	248	0.00	30.088 
14:40	29.7	29.7	29.7	60	17.5	2	3	248	0.00	30.088 
14:45	29.5	29.5	29.5	59	17.0	1	3	292	0.00	30.086 
14:50	29.5	29.5	29.5	60	17.3	1	4	270	0.00	30.083 
14:55	29.5	29.5	29.5	61	17.7	1	3	270	0.00	30.084 
15:00	29.7	29.7	29.7	60	17.5	1	4	248	0.00	30.084 
15:05	29.8	29.8	29.8	60	17.6	1	3	248	0.00	30.083 
15:10	29.5	29.5	29.5	60	17.3	1	3	292	0.00	30.082 
15:15	29.5	29.5	29.5	60	17.3	1	3	248	0.00	30.082 
15:20	29.5	29.5	29.5	60	17.3	1	3	292	0.00	30.082 
15:25	29.7	29.7	29.7	61	17.9	1	3	292	0.00	30.082 
15:30	29.8	29.8	29.8	61	18.0	1	3	270	0.00	30.086 
15:35	30.1	30.1	30.1	60	17.9	1	3	248	0.00	30.088 
15:40	30.3	30.3	30.3	60	18.1	1	4	248	0.00	30.088 
15:45	30.1	30.1	30.1	60	17.9	0	2	248	0.00	30.089 
15:50	30.0	30.0	30.0	61	18.2	0	1	270	0.00	30.089 
15:55	30.3	30.3	30.3	60	18.1	1	3	270	0.00	30.094 
16:00	30.3	30.3	30.3	60	18.1	0	2	270	0.00	30.092 
16:05	30.0	30.0	30.0	60	17.8	0	1	270	0.00	30.091 
16:10	30.3	30.3	30.3	61	18.5	0	3	248	0.00	30.093 
16:15	30.1	30.1	30.1	60	17.9	0	1	248	0.00	30.099 
16:20	30.1	30.1	30.1	61	18.3	0	2	248	0.00	30.101 
16:25	30.0	30.0	30.0	60	17.8	0	1	248	0.00	30.099 
16:30	29.8	29.8	29.8	60	17.6	0	1	248	0.00	30.100 
16:35	29.8	29.8	29.8	61	18.0	0	1	248	0.00	30.103 
16:40	29.8	29.8	29.8	61	18.0	0	1	248	0.00	30.108 
16:45	30.0	30.0	30.0	61	18.2	0	1	248	0.00	30.107 
16:50	29.8	29.8	29.8	61	18.0	0	1	248	0.00	30.108 
16:55	29.8	29.8	29.8	61	18.0	0	1	248	0.00	30.112 
17:00	29.8	29.8	29.8	61	18.0	0	1	248	0.00	30.114 
17:05	29.7	29.7	29.7	62	18.3	0	1	248	0.00	30.112 
17:10	29.7	29.7	29.7	62	18.3	0	2	248	0.00	30.118 
17:15	29.5	29.5	29.5	62	18.1	0	1	248	0.00	30.120 
17:20	29.3	29.3	29.3	62	17.9	0	1	248	0.00	30.124 
17:25	29.0	29.0	29.0	63	18.0	0	0	---	0.00	30.128 
17:30	28.8	28.8	28.8	63	17.8	0	0	---	0.00	30.126 
17:35	28.4	28.4	28.4	64	17.8	0	0	---	0.00	30.123 
17:40	28.2	28.2	28.2	64	17.6	0	0	---	0.00	30.128 
17:45	27.9	27.9	27.9	65	17.7	0	0	---	0.00	30.135 
17:50	27.6	27.6	27.6	65	17.4	0	0	---	0.00	30.134 
17:55	27.2	27.2	27.2	67	17.7	0	0	---	0.00	30.135 
18:00	26.7	26.7	26.7	68	17.6	0	0	---	0.00	30.129 
18:05	26.3	26.3	26.3	68	17.2	0	0	---	0.00	30.129 
18:10	25.8	25.8	25.8	69	17.1	0	0	---	0.00	30.128 
18:15	25.4	25.4	25.4	70	17.0	0	0	---	0.00	30.131 
18:20	25.0	25.0	25.0	71	16.9	0	0	---	0.00	30.135 
18:25	24.5	24.5	24.5	72	16.8	0	0	---	0.00	30.137 
18:30	24.2	24.2	24.2	74	17.1	0	0	---	0.00	30.139 
18:35	24.1	24.1	24.1	74	17.0	0	0	---	0.00	30.140 
18:40	23.8	23.8	23.8	74	16.7	0	0	---	0.00	30.141 
18:45	23.5	23.5	23.5	75	16.8	0	0	---	0.00	30.146 
18:50	23.2	23.2	23.2	75	16.5	0	0	---	0.00	30.145 
18:55	22.7	22.7	22.7	76	16.3	0	0	---	0.00	30.149 
19:00	22.4	22.4	22.4	77	16.3	0	0	---	0.00	30.151 
19:05	22.2	22.2	22.2	78	16.4	0	0	---	0.00	30.147 
19:10	21.9	21.9	21.9	78	16.1	0	0	---	0.00	30.144 
19:15	21.6	21.6	21.6	79	16.1	0	0	---	0.00	30.147 
19:20	21.3	21.3	21.3	80	16.1	0	0	---	0.00	30.149 
19:25	21.1	21.1	21.1	80	15.9	0	0	---	0.00	30.148 
19:30	20.8	20.8	20.8	81	15.9	0	0	---	0.00	30.149 
19:35	20.6	20.6	20.6	81	15.7	0	0	---	0.00	30.148 
19:40	20.3	20.3	20.3	81	15.4	0	0	---	0.00	30.149 
19:45	20.2	20.2	20.2	81	15.3	0	0	---	0.00	30.146 
19:50	19.9	19.9	19.9	82	15.3	0	0	---	0.00	30.148 
19:55	19.9	19.9	19.9	83	15.6	0	0	---	0.00	30.152 
20:00	19.7	19.7	19.7	83	15.4	0	0	---	0.00	30.149 
20:05	19.4	19.4	19.4	83	15.1	0	0	---	0.00	30.151 
20:10	19.1	19.1	19.1	83	14.8	0	0	---	0.00	30.151 
20:15	18.9	18.9	18.9	83	14.6	0	0	---	0.00	30.147 
20:20	18.6	18.6	18.6	84	14.6	0	0	---	0.00	30.145 
20:25	18.4	18.4	18.4	84	14.4	0	0	---	0.00	30.145 
20:30	18.3	18.3	18.3	84	14.3	0	0	---	0.00	30.145 
20:35	18.0	18.0	18.0	84	14.0	0	0	---	0.00	30.144 
20:40	17.8	17.8	17.8	84	13.8	0	0	---	0.00	30.145 
20:45	17.7	17.7	17.7	85	14.0	0	0	---	0.00	30.145 
20:50	17.3	17.3	17.3	85	13.6	0	0	---	0.00	30.146 
20:55	17.2	17.2	17.2	85	13.5	0	0	---	0.00	30.146 
21:00	17.2	17.2	17.2	86	13.7	0	0	---	0.00	30.147 
21:05	17.0	17.0	17.0	86	13.6	0	0	---	0.00	30.147 
21:10	16.9	16.9	16.9	86	13.5	0	0	---	0.00	30.147 
21:15	16.7	16.7	16.7	87	13.5	0	0	---	0.00	30.148 
21:20	16.7	16.7	16.7	87	13.5	0	0	---	0.00	30.148 
21:25	16.7	16.7	16.7	87	13.5	0	0	---	0.00	30.148 
21:30	16.5	16.5	16.5	87	13.3	0	0	---	0.00	30.149 
21:35	16.4	16.4	16.4	87	13.2	0	0	---	0.00	30.148 
21:40	16.2	16.2	16.2	87	13.0	0	0	---	0.00	30.149 
21:45	16.2	16.2	16.2	88	13.3	0	0	---	0.00	30.147 
21:50	16.4	16.4	16.4	88	13.5	0	0	---	0.00	30.147 
21:55	16.5	16.5	16.5	88	13.6	0	0	---	0.00	30.148 
22:00	16.4	16.4	16.4	88	13.5	0	0	---	0.00	30.148 
22:05	16.2	16.2	16.2	88	13.3	0	0	---	0.00	30.148 
22:10	16.1	16.1	16.1	88	13.2	0	0	---	0.00	30.149 
22:15	16.1	16.1	16.1	88	13.2	0	0	---	0.00	30.144 
22:20	15.9	15.9	15.9	88	13.0	0	0	---	0.00	30.144 
22:25	15.9	15.9	15.9	88	13.0	0	0	---	0.00	30.142 
22:30	15.9	15.9	15.9	88	13.0	0	0	---	0.00	30.139 
22:35	15.7	15.7	15.7	88	12.8	0	0	---	0.00	30.136 
22:40	15.7	15.7	15.7	88	12.8	0	0	---	0.00	30.129 
22:45	15.7	15.7	15.7	88	12.8	0	0	---	0.00	30.130 
22:50	15.7	15.7	15.7	88	12.8	0	0	---	0.00	30.130 
22:55	15.9	15.9	15.9	88	13.0	0	0	---	0.00	30.129 
23:00	15.9	15.9	15.9	88	13.0	0	0	---	0.00	30.130 
23:05	15.9	15.9	15.9	88	13.0	0	0	---	0.00	30.128 
23:10	15.7	15.7	15.7	88	12.8	0	0	---	0.00	30.129 
23:15	15.6	15.6	15.6	88	12.7	0	0	---	0.00	30.129 
23:20	15.6	15.6	15.6	88	12.7	0	0	---	0.00	30.125 
23:25	15.4	15.4	15.4	88	12.5	0	0	---	0.00	30.128 
23:30	15.4	15.4	15.4	88	12.5	0	0	---	0.00	30.128 
23:35	15.6	15.6	15.6	88	12.7	0	0	---	0.00	30.130 
23:40	15.6	15.6	15.6	88	12.7	0	0	---	0.00	30.128 
23:45	15.6	15.6	15.6	88	12.7	0	0	---	0.00	30.128 
23:50	15.4	15.4	15.4	88	12.5	0	0	---	0.00	30.126 
23:55	15.2	15.2	15.2	88	12.3	0	0	---	0.00	30.128 

CoCoRaHS
IN-AL-39
A2 Web Hosting
Creative Commons License
GoDaddy
Look for:

loaded 2017-10-16 18:35:38 • last modified 2010-11-18 10:43:29
Privacy PolicyDisclaimer
• wx.awcolley.com is powered by PmWiki v.2002016 •
• all content (unless otherwise noted) © 2017 A W Colley